Time;durP1;ratioP1;P1;durP2;ratioP2;P2;SDS_P1;SDS_P2;PMS_P1;PMS_P2;Temp;Humidity;BMP_temperature;BMP_pressure;BME280_temperature;BME280_humidity;BME280_pressure;Samples;Min_cycle;Max_cycle;Signal;HPM_P1;HPM_P2
2022/06/11 00:02:04;;;;;;;3.55;1.70;;;16.80;73.70;;;;;;5080577;28;20883;-68
2022/06/11 00:04:37;;;;;;;2.85;1.35;;;16.70;74.00;;;;;;5092588;28;20401;-69
2022/06/11 00:07:07;;;;;;;2.67;1.50;;;16.70;74.10;;;;;;5093408;28;20436;-68
2022/06/11 00:09:34;;;;;;;4.22;1.63;;;16.60;74.20;;;;;;5098435;28;20047;-67
2022/06/11 00:12:02;;;;;;;2.97;1.63;;;16.60;74.20;;;;;;5099830;28;20495;-69
2022/06/11 00:14:32;;;;;;;2.63;1.63;;;16.60;74.30;;;;;;5094807;28;20551;-69
2022/06/11 00:17:02;;;;;;;4.28;1.52;;;16.60;74.40;;;;;;5098465;28;20046;-68
2022/06/11 00:19:31;;;;;;;4.15;1.95;;;16.60;74.40;;;;;;5086334;28;20509;-68
2022/06/11 00:21:59;;;;;;;3.53;1.85;;;16.50;74.30;;;;;;5088954;28;20513;-68
2022/06/11 00:24:28;;;;;;;5.03;1.60;;;16.50;74.40;;;;;;5086756;28;20036;-68
2022/06/11 00:26:56;;;;;;;5.43;1.70;;;16.40;74.50;;;;;;5091953;28;20126;-79
2022/06/11 00:29:25;;;;;;;3.17;1.50;;;16.40;74.50;;;;;;5089403;28;20046;-69
2022/06/11 00:31:52;;;;;;;4.95;2.10;;;16.40;74.50;;;;;;5084957;28;20499;-70
2022/06/11 00:34:21;;;;;;;4.30;1.38;;;16.40;74.50;;;;;;5086609;28;20040;-69
2022/06/11 00:36:50;;;;;;;3.08;1.95;;;16.40;74.50;;;;;;5085679;28;20143;-69
2022/06/11 00:39:20;;;;;;;3.88;1.70;;;16.40;74.40;;;;;;5089420;28;20039;-68
2022/06/11 00:41:50;;;;;;;3.15;1.65;;;16.30;74.40;;;;;;5084820;28;20109;-69
2022/06/11 00:44:18;;;;;;;6.00;1.80;;;16.30;74.50;;;;;;5084140;28;20415;-68
2022/06/11 00:46:59;;;;;;;2.78;1.20;;;16.30;74.40;;;;;;5086344;28;20127;-68
2022/06/11 00:49:35;;;;;;;3.35;1.55;;;16.20;74.60;;;;;;5088847;28;20503;-69
2022/06/11 00:52:19;;;;;;;3.30;1.65;;;16.20;74.60;;;;;;5081286;28;20408;-69
2022/06/11 00:54:49;;;;;;;4.72;1.38;;;16.20;74.70;;;;;;5088581;28;20700;-67
2022/06/11 00:57:16;;;;;;;5.93;1.50;;;16.30;74.70;;;;;;5092611;28;20138;-67
2022/06/11 00:59:47;;;;;;;2.90;1.20;;;16.20;74.60;;;;;;5090200;28;20042;-67
2022/06/11 01:02:15;;;;;;;2.53;1.27;;;16.20;74.80;;;;;;5081671;28;20051;-69
2022/06/11 01:04:51;;;;;;;4.80;1.50;;;16.20;74.90;;;;;;5083334;28;20047;-70
2022/06/11 01:07:40;;;;;;;2.20;1.33;;;16.10;74.80;;;;;;5086162;28;20102;-70
2022/06/11 01:10:16;;;;;;;4.75;1.48;;;16.20;74.70;;;;;;5086713;28;20063;-69
2022/06/11 01:12:58;;;;;;;3.40;1.40;;;16.20;74.80;;;;;;5091813;28;20404;-68
2022/06/11 01:15:30;;;;;;;3.30;1.40;;;16.20;75.00;;;;;;5079534;28;20044;-69
2022/06/11 01:18:09;;;;;;;3.42;1.40;;;16.20;74.90;;;;;;5082044;28;20040;-65
2022/06/11 01:20:46;;;;;;;4.10;2.10;;;16.30;74.80;;;;;;5079450;28;20054;-69
2022/06/11 01:23:58;;;;;;;4.45;1.65;;;16.30;74.90;;;;;;5086490;28;20126;-67
2022/06/11 01:26:46;;;;;;;3.90;1.95;;;16.20;74.90;;;;;;5089574;28;20070;-70
2022/06/11 01:29:41;;;;;;;4.90;2.20;;;16.20;75.10;;;;;;5091903;28;20126;-68
2022/06/11 01:32:15;;;;;;;3.55;1.88;;;16.20;75.30;;;;;;5098257;28;20040;-68
2022/06/11 01:34:48;;;;;;;3.20;1.70;;;16.20;75.10;;;;;;5095591;28;20518;-67
2022/06/11 01:37:24;;;;;;;4.45;1.90;;;16.20;75.10;;;;;;5087658;28;20554;-69
2022/06/11 01:39:54;;;;;;;3.60;1.63;;;16.30;74.90;;;;;;5091783;28;20045;-69
2022/06/11 01:42:23;;;;;;;;;;;16.30;74.90;;;;;;5099794;28;20401;-68
2022/06/11 01:45:04;;;;;;;4.05;1.58;;;16.30;74.80;;;;;;5099948;28;20298;-67
2022/06/11 01:47:32;;;;;;;3.45;1.52;;;16.30;75.10;;;;;;5097865;28;20044;-66
2022/06/11 01:50:00;;;;;;;4.40;1.80;;;16.30;75.00;;;;;;5102246;28;20039;-68
2022/06/11 01:52:34;;;;;;;;;;;16.20;75.10;;;;;;5076305;28;20138;-69
2022/06/11 01:55:10;;;;;;;8.00;1.85;;;16.20;75.20;;;;;;5092165;28;20018;-68
2022/06/11 01:57:48;;;;;;;2.92;1.65;;;16.10;75.30;;;;;;5087770;28;20063;-69
2022/06/11 02:00:22;;;;;;;3.13;1.67;;;16.10;75.30;;;;;;5087147;28;20032;-70
2022/06/11 02:03:22;;;;;;;2.30;1.23;;;16.10;75.30;;;;;;5102441;28;20445;-69
2022/06/11 02:06:05;;;;;;;3.13;1.67;;;16.10;75.40;;;;;;5082009;28;20058;-69
2022/06/11 02:08:43;;;;;;;4.72;1.90;;;16.00;75.50;;;;;;5100412;28;20044;-67
2022/06/11 02:11:16;;;;;;;2.55;1.50;;;15.90;75.60;;;;;;5093283;28;20040;-70
2022/06/11 02:13:49;;;;;;;3.30;1.65;;;15.90;75.80;;;;;;5099440;28;20045;-68
2022/06/11 02:16:22;;;;;;;2.05;1.38;;;15.90;75.70;;;;;;5097421;28;20040;-68
2022/06/11 02:18:52;;;;;;;3.05;1.50;;;15.80;75.80;;;;;;5095024;28;20039;-68
2022/06/11 02:21:21;;;;;;;;;;;15.80;75.80;;;;;;5093876;28;20495;-67
2022/06/11 02:23:53;;;;;;;3.13;1.48;;;15.80;76.00;;;;;;5091806;28;19920;-68
2022/06/11 02:26:24;;;;;;;2.65;1.15;;;15.80;76.00;;;;;;5098080;28;20044;-70
2022/06/11 02:28:54;;;;;;;2.90;1.77;;;15.70;76.00;;;;;;5100200;28;20036;-67
2022/06/11 02:31:26;;;;;;;4.03;1.45;;;15.80;75.90;;;;;;5097883;28;20048;-70
2022/06/11 02:33:53;;;;;;;2.97;1.27;;;15.70;75.70;;;;;;5100961;28;20093;-68
2022/06/11 02:36:24;;;;;;;4.10;1.40;;;15.70;75.80;;;;;;5094789;28;20039;-69
2022/06/11 02:38:52;;;;;;;5.03;1.55;;;15.70;75.90;;;;;;5084838;28;20049;-69
2022/06/11 02:41:22;;;;;;;2.65;1.27;;;15.70;76.00;;;;;;5093168;28;20585;-69
2022/06/11 02:43:49;;;;;;;2.72;1.33;;;15.60;76.20;;;;;;5087514;28;20513;-70
2022/06/11 02:49:02;;;;;;;2.88;1.40;;;15.50;76.30;;;;;;5065058;28;20032;-68
2022/06/11 02:51:31;;;;;;;2.85;1.50;;;15.50;76.50;;;;;;5068908;28;20048;-69
2022/06/11 02:54:00;;;;;;;4.07;1.50;;;15.50;76.60;;;;;;5070186;28;20049;-69
2022/06/11 02:56:27;;;;;;;2.35;1.05;;;15.50;76.60;;;;;;5068353;28;20052;-68
2022/06/11 02:58:55;;;;;;;2.25;1.50;;;15.50;76.40;;;;;;5067717;28;20519;-69
2022/06/11 03:01:23;;;;;;;3.17;1.27;;;15.50;76.30;;;;;;5065252;28;20040;-67
2022/06/11 03:03:51;;;;;;;3.90;1.42;;;15.50;76.20;;;;;;5065761;28;20071;-73
2022/06/11 03:06:21;;;;;;;1.92;0.93;;;15.50;76.20;;;;;;5071586;28;20044;-73
2022/06/11 03:08:48;;;;;;;;;;;15.40;76.20;;;;;;5067253;28;20047;-72
2022/06/11 03:11:15;;;;;;;2.17;1.02;;;15.40;76.20;;;;;;5068157;28;19928;-74
2022/06/11 03:13:42;;;;;;;2.15;1.10;;;15.40;76.20;;;;;;5061771;28;20163;-73
2022/06/11 03:16:10;;;;;;;2.20;1.15;;;15.40;76.30;;;;;;5066936;28;20523;-69
2022/06/11 03:18:37;;;;;;;3.60;1.50;;;15.30;76.50;;;;;;5078069;28;20051;-73
2022/06/11 03:21:04;;;;;;;3.17;1.20;;;15.30;76.40;;;;;;5078671;28;20052;-73
2022/06/11 03:23:33;;;;;;;3.83;1.27;;;15.30;76.40;;;;;;5080385;28;20518;-71
2022/06/11 03:26:01;;;;;;;3.88;1.70;;;15.30;76.40;;;;;;5080701;28;20442;-75
2022/06/11 03:28:29;;;;;;;4.57;1.60;;;15.20;76.30;;;;;;5079858;28;20142;-69
2022/06/11 03:30:57;;;;;;;3.08;1.67;;;15.20;76.40;;;;;;5074400;28;20044;-71
2022/06/11 03:33:26;;;;;;;2.97;1.35;;;15.20;76.30;;;;;;5080930;28;20074;-74
2022/06/11 03:35:53;;;;;;;2.80;1.20;;;15.20;76.50;;;;;;5079473;28;20045;-73
2022/06/11 03:38:21;;;;;;;2.88;1.42;;;15.20;76.60;;;;;;5080930;28;20496;-73
2022/06/11 03:40:50;;;;;;;3.45;1.40;;;15.10;76.60;;;;;;5080506;28;20083;-73
2022/06/11 03:43:17;;;;;;;2.30;1.48;;;15.10;76.60;;;;;;5081114;28;20407;-72
2022/06/11 03:45:44;;;;;;;3.03;1.45;;;15.10;76.60;;;;;;5086437;28;20542;-73
2022/06/11 03:48:12;;;;;;;4.30;1.40;;;15.10;76.70;;;;;;5092855;28;20542;-74
2022/06/11 03:50:40;;;;;;;2.58;1.30;;;15.10;76.60;;;;;;5096818;28;20125;-72
2022/06/11 03:53:10;;;;;;;2.70;1.40;;;15.10;76.70;;;;;;5086588;28;20501;-70
2022/06/11 03:55:38;;;;;;;3.83;1.52;;;15.10;76.70;;;;;;5090291;28;20056;-74
2022/06/11 03:58:07;;;;;;;3.38;1.65;;;15.00;76.80;;;;;;5073388;28;20380;-71
2022/06/11 04:03:21;;;;;;;2.90;1.38;;;15.10;76.60;;;;;;5085874;28;20054;-74
2022/06/11 04:05:49;;;;;;;6.63;1.52;;;15.10;76.70;;;;;;5076335;28;20047;-73
2022/06/11 04:08:17;;;;;;;1.83;1.15;;;15.10;76.80;;;;;;5090831;28;20470;-71
2022/06/11 04:10:45;;;;;;;2.03;0.90;;;15.10;76.80;;;;;;5086601;28;20059;-69
2022/06/11 04:13:14;;;;;;;2.83;1.48;;;15.00;76.80;;;;;;5089778;28;20044;-73
2022/06/11 04:15:43;;;;;;;1.65;1.00;;;15.00;76.90;;;;;;5088112;28;20122;-71
2022/06/11 04:18:23;;;;;;;4.07;1.50;;;15.00;77.00;;;;;;5086799;28;20043;-72
2022/06/11 04:20:50;;;;;;;3.92;1.48;;;15.00;77.10;;;;;;5088086;28;20487;-71
2022/06/11 04:23:17;;;;;;;3.17;1.50;;;15.00;77.10;;;;;;5083842;28;20046;-71
2022/06/11 04:25:45;;;;;;;2.38;1.20;;;15.10;77.20;;;;;;5085450;28;20044;-70
2022/06/11 04:28:13;;;;;;;2.17;1.20;;;15.10;77.10;;;;;;5085141;28;20040;-69
2022/06/11 04:30:40;;;;;;;3.85;1.48;;;15.10;77.20;;;;;;5066198;28;20537;-72
2022/06/11 04:33:07;;;;;;;2.25;1.20;;;15.10;77.30;;;;;;5062148;28;20412;-72
2022/06/11 04:35:34;;;;;;;3.97;1.73;;;15.20;77.50;;;;;;5076381;28;20046;-69
2022/06/11 04:38:01;;;;;;;2.60;1.40;;;15.20;77.30;;;;;;5061226;28;20070;-68
2022/06/11 04:40:28;;;;;;;5.28;1.90;;;15.30;77.30;;;;;;5055148;28;20056;-71
2022/06/11 04:42:55;;;;;;;3.70;1.50;;;15.30;77.40;;;;;;5050049;28;20049;-72
2022/06/11 04:45:23;;;;;;;4.40;1.95;;;15.30;77.60;;;;;;5049700;28;20056;-72
2022/06/11 04:47:50;;;;;;;4.05;1.80;;;15.40;77.40;;;;;;5054032;28;20045;-70
2022/06/11 04:50:19;;;;;;;4.78;1.48;;;15.50;77.40;;;;;;5057119;28;20051;-74
2022/06/11 04:52:46;;;;;;;3.97;1.73;;;15.60;77.20;;;;;;5055864;28;20052;-73
2022/06/11 04:55:14;;;;;;;3.63;1.90;;;15.70;76.80;;;;;;5063882;28;20072;-72
2022/06/11 04:57:43;;;;;;;3.38;1.73;;;15.70;77.10;;;;;;5058098;28;20068;-72
2022/06/11 05:00:11;;;;;;;2.22;1.30;;;15.70;77.30;;;;;;5053257;28;20095;-69
2022/06/11 05:02:39;;;;;;;4.55;1.90;;;15.80;77.20;;;;;;5055561;28;20528;-70
2022/06/11 05:05:08;;;;;;;3.38;1.60;;;15.80;77.40;;;;;;5057269;28;20045;-72
2022/06/11 05:07:35;;;;;;;2.38;1.45;;;15.90;77.40;;;;;;5064044;28;20579;-73
2022/06/11 05:10:02;;;;;;;4.35;1.90;;;16.00;77.20;;;;;;5064334;28;20095;-71
2022/06/11 05:12:29;;;;;;;4.55;2.05;;;16.00;77.00;;;;;;5063016;28;20559;-70
2022/06/11 05:14:56;;;;;;;4.65;1.80;;;16.00;77.10;;;;;;5063605;28;20131;-70
2022/06/11 05:17:23;;;;;;;3.13;1.80;;;16.00;77.20;;;;;;5062522;28;20061;-70
2022/06/11 05:19:51;;;;;;;5.40;2.10;;;16.10;77.00;;;;;;5065275;28;20067;-70
2022/06/11 05:22:18;;;;;;;3.50;1.83;;;16.20;77.10;;;;;;5060616;28;20043;-73
2022/06/11 05:24:45;;;;;;;4.63;1.67;;;16.20;77.00;;;;;;5062760;28;20086;-70
2022/06/11 05:27:16;;;;;;;5.07;2.03;;;16.20;77.00;;;;;;5062415;28;20037;-68
2022/06/11 05:29:49;;;;;;;3.05;1.77;;;16.30;76.80;;;;;;5052481;28;20162;-72
2022/06/11 05:32:17;;;;;;;4.82;2.17;;;16.40;76.70;;;;;;5061314;28;20049;-68
2022/06/11 05:34:45;;;;;;;3.67;1.83;;;16.40;76.70;;;;;;5064384;28;20055;-73
2022/06/11 05:37:16;;;;;;;6.05;1.90;;;16.40;76.80;;;;;;5064306;28;20045;-75
2022/06/11 05:39:46;;;;;;;4.43;1.75;;;16.50;76.60;;;;;;5064234;28;20522;-68
2022/06/11 05:42:14;;;;;;;5.93;2.00;;;16.50;76.50;;;;;;5065667;28;20052;-71
2022/06/11 05:44:41;;;;;;;4.38;2.63;;;16.50;76.60;;;;;;5065678;28;20059;-72
2022/06/11 05:47:11;;;;;;;3.17;1.77;;;16.60;76.40;;;;;;5065174;28;20053;-72
2022/06/11 05:49:39;;;;;;;;;;;16.60;76.40;;;;;;5067078;28;20056;-72
2022/06/11 05:52:12;;;;;;;6.47;1.85;;;16.60;76.40;;;;;;5063692;28;19921;-69
2022/06/11 05:54:42;;;;;;;3.50;1.77;;;16.60;76.40;;;;;;5064718;28;20056;-69
2022/06/11 05:57:12;;;;;;;5.03;1.88;;;16.60;76.60;;;;;;5061813;28;20049;-72
2022/06/11 05:59:43;;;;;;;;;;;16.60;76.60;;;;;;5066040;28;20040;-70
2022/06/11 06:02:12;;;;;;;3.83;1.38;;;16.60;77.00;;;;;;5061371;28;19927;-67
2022/06/11 06:04:40;;;;;;;3.30;1.58;;;16.60;76.90;;;;;;5060592;28;20044;-70
2022/06/11 06:07:09;;;;;;;4.38;1.88;;;16.60;76.90;;;;;;5065166;28;20068;-74
2022/06/11 06:09:36;;;;;;;5.25;2.13;;;16.70;76.90;;;;;;5064365;28;20048;-73
2022/06/11 06:12:06;;;;;;;5.15;1.75;;;16.70;77.00;;;;;;5063664;28;20053;-71
2022/06/11 06:14:33;;;;;;;4.10;2.00;;;16.80;76.90;;;;;;5066094;28;20067;-71
2022/06/11 06:17:00;;;;;;;2.83;1.67;;;16.80;77.00;;;;;;5059419;28;20079;-69
2022/06/11 06:19:28;;;;;;;4.32;1.70;;;16.90;77.40;;;;;;5058006;28;20393;-75
2022/06/11 06:21:55;;;;;;;3.90;1.88;;;16.90;77.00;;;;;;5053439;28;20051;-71
2022/06/11 06:24:22;;;;;;;3.17;2.08;;;17.00;76.90;;;;;;5060121;28;20560;-71
2022/06/11 06:26:49;;;;;;;4.93;1.52;;;17.10;76.80;;;;;;5058495;28;20055;-70
2022/06/11 06:29:17;;;;;;;4.57;1.67;;;17.10;76.60;;;;;;5060251;28;20077;-74
2022/06/11 06:31:44;;;;;;;3.33;1.50;;;17.10;76.20;;;;;;5062866;28;20056;-70
2022/06/11 06:34:11;;;;;;;4.97;1.65;;;17.10;76.00;;;;;;5059846;28;20049;-71
2022/06/11 06:36:38;;;;;;;3.25;1.80;;;17.10;76.10;;;;;;5057852;28;20062;-72
2022/06/11 06:39:05;;;;;;;3.45;1.70;;;17.20;76.00;;;;;;5059315;28;20449;-70
2022/06/11 06:41:32;;;;;;;3.60;1.60;;;17.20;76.40;;;;;;5059220;28;20072;-69
2022/06/11 06:43:59;;;;;;;5.38;1.60;;;17.30;76.20;;;;;;5058491;28;20041;-69
2022/06/11 06:46:28;;;;;;;3.78;1.63;;;17.30;76.10;;;;;;5053526;28;20079;-70
2022/06/11 06:48:55;;;;;;;4.35;1.67;;;17.30;76.00;;;;;;5068326;28;20051;-72
2022/06/11 06:51:22;;;;;;;5.72;1.73;;;17.40;75.80;;;;;;5058804;28;20417;-70
2022/06/11 06:53:49;;;;;;;3.47;1.85;;;17.50;75.70;;;;;;5055710;28;20517;-68
2022/06/11 06:56:16;;;;;;;2.65;1.60;;;17.50;75.80;;;;;;5058853;28;20051;-73
2022/06/11 06:58:43;;;;;;;3.58;1.70;;;17.60;75.70;;;;;;5061319;28;20064;-71
2022/06/11 07:01:10;;;;;;;3.47;1.90;;;17.60;75.50;;;;;;5057301;28;20086;-73
2022/06/11 07:03:41;;;;;;;3.35;2.00;;;17.70;75.70;;;;;;5056486;28;20975;-72
2022/06/11 07:06:08;;;;;;;5.97;1.60;;;17.70;75.80;;;;;;5057364;28;20053;-73
2022/06/11 07:08:35;;;;;;;3.42;1.70;;;17.80;75.70;;;;;;5057354;28;20150;-71
2022/06/11 07:11:02;;;;;;;5.43;2.08;;;17.80;75.70;;;;;;5057910;28;20457;-72
2022/06/11 07:13:31;;;;;;;2.78;1.40;;;17.90;75.70;;;;;;5060431;28;20040;-74
2022/06/11 07:16:00;;;;;;;3.70;1.83;;;17.90;75.80;;;;;;5061833;28;20049;-73
2022/06/11 07:18:31;;;;;;;3.13;1.40;;;18.00;75.60;;;;;;5061277;28;20169;-72
2022/06/11 07:21:02;;;;;;;4.43;1.98;;;18.10;75.40;;;;;;5061247;28;20049;-68
2022/06/11 07:23:35;;;;;;;4.55;2.03;;;18.10;75.10;;;;;;5061696;28;20487;-72
2022/06/11 07:26:08;;;;;;;3.65;1.70;;;18.20;74.90;;;;;;5054035;28;20055;-69
2022/06/11 07:28:39;;;;;;;3.13;1.75;;;18.20;74.60;;;;;;5066030;28;20045;-71
2022/06/11 07:31:06;;;;;;;3.55;1.90;;;18.30;74.10;;;;;;5061788;28;20128;-68
2022/06/11 07:33:33;;;;;;;4.90;1.60;;;18.40;73.80;;;;;;5059429;28;20062;-72
2022/06/11 07:36:03;;;;;;;5.80;2.03;;;18.40;73.40;;;;;;5060514;28;20047;-70
2022/06/11 07:38:30;;;;;;;8.68;2.63;;;18.50;73.00;;;;;;5056893;28;20053;-73
2022/06/11 07:40:57;;;;;;;5.95;2.60;;;18.60;73.20;;;;;;5059631;28;20036;-68
2022/06/11 07:43:24;;;;;;;5.47;2.30;;;18.60;73.30;;;;;;5072361;28;20048;-71
2022/06/11 07:45:52;;;;;;;2.28;1.52;;;18.70;72.40;;;;;;5059074;28;20051;-72
2022/06/11 07:48:19;;;;;;;3.55;1.85;;;18.80;72.40;;;;;;5059353;28;20063;-74
2022/06/11 07:50:48;;;;;;;3.45;1.70;;;18.80;72.00;;;;;;5058868;28;20072;-72
2022/06/11 07:53:17;;;;;;;3.10;1.80;;;18.90;71.70;;;;;;5060964;28;20138;-72
2022/06/11 07:55:46;;;;;;;5.72;1.73;;;18.90;71.50;;;;;;5060542;28;20066;-68
2022/06/11 07:58:15;;;;;;;3.72;1.63;;;19.10;71.80;;;;;;5058654;28;20056;-72
2022/06/11 08:00:44;;;;;;;4.03;1.63;;;19.20;71.60;;;;;;5050162;28;20048;-70
2022/06/11 08:03:11;;;;;;;2.38;1.20;;;19.40;71.30;;;;;;5057588;28;20049;-70
2022/06/11 08:05:41;;;;;;;3.33;1.42;;;19.60;71.50;;;;;;5058209;28;20079;-72
2022/06/11 08:08:09;;;;;;;3.50;1.50;;;19.90;72.10;;;;;;5057628;28;20051;-70
2022/06/11 08:10:39;;;;;;;3.40;1.30;;;20.10;71.10;;;;;;5058884;28;20044;-72
2022/06/11 08:13:07;;;;;;;2.33;1.25;;;20.20;71.60;;;;;;5059415;28;20098;-68
2022/06/11 08:15:35;;;;;;;2.92;1.10;;;20.50;70.80;;;;;;5057406;28;20053;-72
2022/06/11 08:18:02;;;;;;;5.72;1.95;;;20.60;70.80;;;;;;5056478;28;20138;-72
2022/06/11 08:20:31;;;;;;;3.33;1.10;;;20.80;71.30;;;;;;5057574;28;20420;-69
2022/06/11 08:22:58;;;;;;;2.25;1.17;;;20.90;69.20;;;;;;5058410;28;20114;-70
2022/06/11 08:25:26;;;;;;;3.35;1.23;;;21.10;68.60;;;;;;5054655;28;20048;-69
2022/06/11 08:27:55;;;;;;;2.72;1.33;;;21.30;68.80;;;;;;5058268;28;20174;-68
2022/06/11 08:30:24;;;;;;;4.90;1.43;;;21.40;67.90;;;;;;5058022;28;20040;-72
2022/06/11 08:32:51;;;;;;;3.38;0.90;;;21.60;66.90;;;;;;5057458;28;20868;-73
2022/06/11 08:35:23;;;;;;;2.60;1.15;;;21.70;65.80;;;;;;5058672;28;20041;-68
2022/06/11 08:37:50;;;;;;;1.70;1.00;;;21.80;65.60;;;;;;5061252;28;20127;-72
2022/06/11 08:40:22;;;;;;;4.82;1.20;;;21.90;66.40;;;;;;5059442;28;20033;-69
2022/06/11 08:42:58;;;;;;;3.13;1.30;;;22.10;65.20;;;;;;5060358;28;20053;-73
2022/06/11 08:45:30;;;;;;;2.25;1.10;;;22.20;63.80;;;;;;5058345;28;20055;-71
2022/06/11 08:48:02;;;;;;;3.15;1.25;;;22.30;62.80;;;;;;5061715;28;20044;-72
2022/06/11 08:50:35;;;;;;;1.42;0.90;;;22.50;63.10;;;;;;5058796;28;20470;-70
2022/06/11 08:53:06;;;;;;;2.00;1.10;;;22.60;63.90;;;;;;5055575;28;20527;-72
2022/06/11 08:55:37;;;;;;;4.00;1.27;;;22.60;62.40;;;;;;5059079;28;20064;-74
2022/06/11 08:58:17;;;;;;;2.42;0.85;;;22.70;61.40;;;;;;5059794;28;20051;-73
2022/06/11 09:00:52;;;;;;;2.58;1.40;;;22.80;61.30;;;;;;5056206;28;20044;-71
2022/06/11 09:03:37;;;;;;;2.05;0.80;;;22.90;60.70;;;;;;5060497;28;20087;-72
2022/06/11 09:06:32;;;;;;;4.60;1.63;;;23.10;59.50;;;;;;5059090;28;20044;-73
2022/06/11 09:09:04;;;;;;;2.40;1.33;;;23.20;59.60;;;;;;5059783;28;20049;-71
2022/06/11 09:11:50;;;;;;;2.90;1.30;;;23.20;58.90;;;;;;5059092;28;20040;-73
2022/06/11 09:14:40;;;;;;;3.42;0.82;;;23.30;59.50;;;;;;5060603;28;20127;-73
2022/06/11 09:17:40;;;;;;;2.28;0.93;;;23.40;58.50;;;;;;5060189;28;20044;-74
2022/06/11 09:20:20;;;;;;;3.15;0.85;;;23.60;57.80;;;;;;5059838;28;20048;-69
2022/06/11 09:23:07;;;;;;;5.22;1.30;;;23.60;56.90;;;;;;5058065;28;20124;-73
2022/06/11 09:25:45;;;;;;;4.20;1.52;;;23.60;57.30;;;;;;5060747;28;20466;-74
2022/06/11 09:28:21;;;;;;;2.95;1.00;;;23.70;56.80;;;;;;5059614;28;20047;-72
2022/06/11 09:31:00;;;;;;;1.20;0.65;;;23.80;55.80;;;;;;5059269;28;20697;-72
2022/06/11 09:33:31;;;;;;;2.10;0.65;;;23.90;55.50;;;;;;5058721;28;20051;-70
2022/06/11 09:36:02;;;;;;;3.05;0.70;;;24.00;54.60;;;;;;5060361;28;20048;-73
2022/06/11 09:38:36;;;;;;;3.65;1.00;;;24.00;54.40;;;;;;5058831;28;20547;-71
2022/06/11 09:41:14;;;;;;;2.67;1.00;;;24.10;54.20;;;;;;5057258;28;20162;-72
2022/06/11 09:43:49;;;;;;;2.47;0.80;;;24.10;53.90;;;;;;5056036;28;20102;-72
2022/06/11 09:46:25;;;;;;;3.28;1.10;;;24.20;54.10;;;;;;5058100;28;20091;-72
2022/06/11 09:49:09;;;;;;;2.22;0.70;;;24.30;54.10;;;;;;5060114;28;20059;-72
2022/06/11 09:51:44;;;;;;;3.00;0.95;;;24.30;53.60;;;;;;5057627;28;20260;-73
2022/06/11 09:54:50;;;;;;;2.22;0.80;;;24.40;53.10;;;;;;5061486;28;20071;-73
2022/06/11 09:57:26;;;;;;;3.97;0.93;;;24.40;53.00;;;;;;5061049;28;20059;-73
2022/06/11 10:00:01;;;;;;;2.33;0.85;;;24.50;52.80;;;;;;5061149;28;20045;-72
2022/06/11 10:02:36;;;;;;;1.63;0.73;;;24.50;52.80;;;;;;5055762;28;20420;-73
2022/06/11 10:05:15;;;;;;;3.55;1.13;;;24.60;52.80;;;;;;5060584;28;20424;-73
2022/06/11 10:07:47;;;;;;;2.17;0.80;;;24.60;52.50;;;;;;5060682;28;20055;-71
2022/06/11 10:10:20;;;;;;;3.33;1.00;;;24.60;52.30;;;;;;5056164;28;20546;-72
2022/06/11 10:12:53;;;;;;;2.17;1.00;;;24.60;52.30;;;;;;5060460;28;20055;-73
2022/06/11 10:15:24;;;;;;;4.82;1.42;;;24.60;52.10;;;;;;5061579;28;20109;-67
2022/06/11 10:18:00;;;;;;;2.22;0.70;;;24.70;52.00;;;;;;5060149;28;20145;-68
2022/06/11 10:20:32;;;;;;;3.53;1.15;;;24.80;51.80;;;;;;5062560;28;20049;-73
2022/06/11 10:23:05;;;;;;;5.00;1.00;;;24.80;51.60;;;;;;5062455;28;20041;-70
2022/06/11 10:25:36;;;;;;;4.82;0.85;;;24.80;52.00;;;;;;5068886;28;20049;-73
2022/06/11 10:28:15;;;;;;;1.83;0.70;;;24.90;51.20;;;;;;5063214;28;20500;-70
2022/06/11 10:30:48;;;;;;;1.90;0.80;;;25.00;51.00;;;;;;5062900;28;20453;-71
2022/06/11 10:33:29;;;;;;;1.05;0.60;;;25.00;51.40;;;;;;5064054;28;20436;-68
2022/06/11 10:36:00;;;;;;;1.38;0.68;;;25.10;51.40;;;;;;5060603;28;20049;-70
2022/06/11 10:38:35;;;;;;;1.58;0.70;;;25.10;50.80;;;;;;5059083;28;20053;-73
2022/06/11 10:41:06;;;;;;;1.85;0.73;;;25.10;50.70;;;;;;5062516;28;20680;-72
2022/06/11 10:43:39;;;;;;;4.75;0.88;;;25.10;50.70;;;;;;5061234;28;20053;-73
2022/06/11 10:46:11;;;;;;;2.28;1.10;;;25.10;50.50;;;;;;5062726;28;20385;-72
2022/06/11 10:48:40;;;;;;;2.35;0.75;;;25.30;51.00;;;;;;5061457;28;20056;-73
2022/06/11 10:51:16;;;;;;;2.22;0.88;;;25.50;49.60;;;;;;5064839;28;20072;-73
2022/06/11 10:53:54;;;;;;;3.22;0.80;;;25.30;49.60;;;;;;5060742;28;20523;-73
2022/06/11 10:56:27;;;;;;;3.10;1.00;;;25.30;49.90;;;;;;5063049;28;20053;-72
2022/06/11 10:59:01;;;;;;;1.55;0.75;;;25.30;49.80;;;;;;5060946;28;20404;-75
2022/06/11 11:01:33;;;;;;;1.58;0.80;;;25.30;49.70;;;;;;5057850;28;20083;-72
2022/06/11 11:04:19;;;;;;;2.67;0.93;;;25.30;49.60;;;;;;5061430;28;20047;-67
2022/06/11 11:06:45;;;;;;;2.28;0.80;;;25.30;49.80;;;;;;5061318;28;20044;-72
2022/06/11 11:09:14;;;;;;;3.65;1.00;;;25.30;49.60;;;;;;5057387;28;20048;-73
2022/06/11 11:11:45;;;;;;;2.92;0.77;;;25.30;49.60;;;;;;5062354;28;20132;-69
2022/06/11 11:14:17;;;;;;;2.35;0.90;;;25.30;49.60;;;;;;5060887;28;20052;-71
2022/06/11 11:16:48;;;;;;;3.05;1.40;;;25.30;49.30;;;;;;5061397;28;20056;-73
2022/06/11 11:19:21;;;;;;;4.00;1.50;;;25.30;49.50;;;;;;5060308;28;20520;-72
2022/06/11 11:21:55;;;;;;;3.90;1.50;;;25.30;49.70;;;;;;5058191;28;20044;-72
2022/06/11 11:24:26;;;;;;;2.22;0.82;;;25.40;49.40;;;;;;5063908;28;20087;-72
2022/06/11 11:26:57;;;;;;;2.28;1.10;;;25.30;49.30;;;;;;5059431;28;20040;-68
2022/06/11 11:29:28;;;;;;;3.72;1.00;;;25.30;49.10;;;;;;5058463;28;20597;-69
2022/06/11 11:32:01;;;;;;;2.83;0.88;;;25.30;49.00;;;;;;5057474;28;20103;-71
2022/06/11 11:34:32;;;;;;;3.05;1.10;;;25.20;49.10;;;;;;5059255;28;20508;-69
2022/06/11 11:37:16;;;;;;;3.42;0.80;;;25.20;49.40;;;;;;5064474;28;20049;-68
2022/06/11 11:39:50;;;;;;;3.75;0.77;;;25.10;49.40;;;;;;5058042;28;20049;-72
2022/06/11 11:42:22;;;;;;;2.95;0.80;;;25.10;49.40;;;;;;5058558;28;20052;-72
2022/06/11 11:44:51;;;;;;;2.65;1.00;;;25.10;49.50;;;;;;5058857;28;20076;-71
2022/06/11 11:47:25;;;;;;;1.98;0.95;;;25.00;49.60;;;;;;5056323;28;20045;-71
2022/06/11 11:50:08;;;;;;;3.05;1.27;;;25.00;49.90;;;;;;5057833;28;20132;-71
2022/06/11 11:52:41;;;;;;;4.47;1.45;;;24.90;50.00;;;;;;5056910;28;20081;-72
2022/06/11 11:55:16;;;;;;;3.42;1.65;;;25.00;50.20;;;;;;5058668;28;20531;-72
2022/06/11 11:57:53;;;;;;;6.30;1.80;;;25.10;50.10;;;;;;5057778;28;20052;-71
2022/06/11 12:00:28;;;;;;;5.13;1.05;;;25.10;50.30;;;;;;5055240;28;20050;-73
2022/06/11 12:03:01;;;;;;;3.17;1.30;;;25.10;50.30;;;;;;5059564;28;20135;-72
2022/06/11 12:05:35;;;;;;;3.95;1.60;;;25.00;50.50;;;;;;5056195;28;20409;-71
2022/06/11 12:08:02;;;;;;;4.78;1.42;;;25.10;51.20;;;;;;5061207;28;20079;-73
2022/06/11 12:10:38;;;;;;;2.95;0.90;;;25.10;50.70;;;;;;5060092;28;20041;-74
2022/06/11 12:13:22;;;;;;;4.15;1.30;;;25.00;50.80;;;;;;5057906;28;20423;-72
2022/06/11 12:15:54;;;;;;;3.38;1.10;;;25.10;51.30;;;;;;5052591;28;20033;-73
2022/06/11 12:18:28;;;;;;;1.40;0.80;;;25.00;50.90;;;;;;5060824;28;20567;-70
2022/06/11 12:21:00;;;;;;;3.17;0.98;;;24.90;50.90;;;;;;5061142;28;20049;-73
2022/06/11 12:23:34;;;;;;;2.10;0.70;;;24.90;51.00;;;;;;5059195;28;20574;-69
2022/06/11 12:26:05;;;;;;;1.77;0.82;;;24.90;51.20;;;;;;5059951;28;20059;-71
2022/06/11 12:28:36;;;;;;;2.83;0.93;;;24.90;51.40;;;;;;5058935;28;20045;-72
2022/06/11 12:31:04;;;;;;;2.33;0.93;;;25.00;51.30;;;;;;5058249;28;20456;-68
2022/06/11 12:33:31;;;;;;;2.88;1.40;;;25.00;51.00;;;;;;5059261;28;20471;-69
2022/06/11 12:36:10;;;;;;;2.97;1.13;;;25.10;51.30;;;;;;5060391;28;20055;-68
2022/06/11 12:38:49;;;;;;;2.20;0.90;;;25.10;51.20;;;;;;5059166;28;20068;-74
2022/06/11 12:41:33;;;;;;;2.33;0.77;;;25.20;50.30;;;;;;5059507;28;20045;-69
2022/06/11 12:44:18;;;;;;;3.60;1.05;;;25.20;50.50;;;;;;5058596;28;20457;-73
2022/06/11 12:46:51;;;;;;;3.85;1.10;;;25.20;50.20;;;;;;5059442;28;20051;-69
2022/06/11 12:49:25;;;;;;;3.15;0.90;;;25.20;50.20;;;;;;5059580;28;20033;-69
2022/06/11 12:52:12;;;;;;;3.72;1.30;;;25.20;50.20;;;;;;5057933;28;20044;-74
2022/06/11 12:54:55;;;;;;;3.05;1.00;;;25.10;50.20;;;;;;5059199;28;20045;-71
2022/06/11 12:57:36;;;;;;;2.35;1.05;;;25.10;50.20;;;;;;5059223;28;20044;-71
2022/06/11 13:00:28;;;;;;;2.25;0.88;;;25.10;50.60;;;;;;5056093;28;20453;-72
2022/06/11 13:03:12;;;;;;;3.08;1.13;;;25.10;50.30;;;;;;5056033;28;20044;-74
2022/06/11 13:06:15;;;;;;;2.70;1.20;;;25.20;50.50;;;;;;5064000;28;20045;-72
2022/06/11 13:08:57;;;;;;;2.85;1.08;;;25.20;50.40;;;;;;5055538;28;20131;-70
2022/06/11 13:11:31;;;;;;;3.80;1.10;;;25.30;50.00;;;;;;5057665;28;20120;-73
2022/06/11 13:14:15;;;;;;;1.88;0.90;;;25.30;50.30;;;;;;5056721;28;20078;-68
2022/06/11 13:16:52;;;;;;;2.95;1.13;;;25.40;49.90;;;;;;5065539;28;20139;-72
2022/06/11 13:19:33;;;;;;;2.53;0.90;;;25.40;50.10;;;;;;5057493;28;20590;-71